sensor_id;sensor_type;location;lat;lon;timestamp;P1;durP1;ratioP1;P2;durP2;ratioP2
61188;SDS011;47054;39.716;2.904;2022-12-11T00:00:22;11.43;;;6.38;;
61188;SDS011;47054;39.716;2.904;2022-12-11T00:03:06;12.40;;;6.30;;
61188;SDS011;47054;39.716;2.904;2022-12-11T00:05:51;11.75;;;6.18;;
61188;SDS011;47054;39.716;2.904;2022-12-11T00:08:36;11.38;;;6.35;;
61188;SDS011;47054;39.716;2.904;2022-12-11T00:11:21;10.57;;;5.85;;
61188;SDS011;47054;39.716;2.904;2022-12-11T00:14:06;10.23;;;5.88;;
61188;SDS011;47054;39.716;2.904;2022-12-11T00:16:50;9.93;;;5.80;;
61188;SDS011;47054;39.716;2.904;2022-12-11T00:19:35;10.55;;;6.10;;
61188;SDS011;47054;39.716;2.904;2022-12-11T00:22:19;10.93;;;6.22;;
61188;SDS011;47054;39.716;2.904;2022-12-11T00:25:04;8.75;;;5.38;;
61188;SDS011;47054;39.716;2.904;2022-12-11T00:27:49;12.05;;;6.25;;
61188;SDS011;47054;39.716;2.904;2022-12-11T00:30:37;9.52;;;5.68;;
61188;SDS011;47054;39.716;2.904;2022-12-11T00:33:24;9.02;;;5.20;;
61188;SDS011;47054;39.716;2.904;2022-12-11T00:36:10;10.77;;;5.70;;
61188;SDS011;47054;39.716;2.904;2022-12-11T00:39:00;10.65;;;5.95;;
61188;SDS011;47054;39.716;2.904;2022-12-11T00:41:46;9.23;;;5.43;;
61188;SDS011;47054;39.716;2.904;2022-12-11T00:44:31;9.38;;;5.30;;
61188;SDS011;47054;39.716;2.904;2022-12-11T00:47:15;11.48;;;5.28;;
61188;SDS011;47054;39.716;2.904;2022-12-11T00:50:00;10.50;;;5.57;;
61188;SDS011;47054;39.716;2.904;2022-12-11T00:52:44;11.55;;;6.20;;
61188;SDS011;47054;39.716;2.904;2022-12-11T00:55:29;9.40;;;5.60;;
61188;SDS011;47054;39.716;2.904;2022-12-11T00:58:14;10.18;;;5.18;;
61188;SDS011;47054;39.716;2.904;2022-12-11T01:01:04;8.00;;;4.70;;
61188;SDS011;47054;39.716;2.904;2022-12-11T01:03:52;9.48;;;5.25;;
61188;SDS011;47054;39.716;2.904;2022-12-11T01:06:37;9.65;;;4.90;;
61188;SDS011;47054;39.716;2.904;2022-12-11T01:09:22;8.18;;;4.78;;
61188;SDS011;47054;39.716;2.904;2022-12-11T01:12:25;8.07;;;4.95;;
61188;SDS011;47054;39.716;2.904;2022-12-11T01:15:11;8.18;;;4.95;;
61188;SDS011;47054;39.716;2.904;2022-12-11T01:17:57;8.02;;;5.10;;
61188;SDS011;47054;39.716;2.904;2022-12-11T01:20:42;8.88;;;5.20;;
61188;SDS011;47054;39.716;2.904;2022-12-11T01:23:26;9.77;;;5.15;;
61188;SDS011;47054;39.716;2.904;2022-12-11T01:26:12;9.43;;;5.20;;
61188;SDS011;47054;39.716;2.904;2022-12-11T01:28:58;8.02;;;4.97;;
61188;SDS011;47054;39.716;2.904;2022-12-11T01:31:43;8.75;;;4.63;;
61188;SDS011;47054;39.716;2.904;2022-12-11T01:34:28;9.50;;;5.35;;
61188;SDS011;47054;39.716;2.904;2022-12-11T01:37:13;9.20;;;4.70;;
61188;SDS011;47054;39.716;2.904;2022-12-11T01:39:59;8.02;;;4.70;;
61188;SDS011;47054;39.716;2.904;2022-12-11T01:42:44;9.30;;;4.95;;
61188;SDS011;47054;39.716;2.904;2022-12-11T01:45:37;9.55;;;5.00;;
61188;SDS011;47054;39.716;2.904;2022-12-11T01:48:26;8.88;;;4.82;;
61188;SDS011;47054;39.716;2.904;2022-12-11T01:51:13;9.75;;;5.28;;
61188;SDS011;47054;39.716;2.904;2022-12-11T01:53:59;8.77;;;4.93;;
61188;SDS011;47054;39.716;2.904;2022-12-11T01:56:49;8.15;;;4.53;;
61188;SDS011;47054;39.716;2.904;2022-12-11T01:59:36;9.25;;;4.72;;
61188;SDS011;47054;39.716;2.904;2022-12-11T02:02:28;7.43;;;4.18;;
61188;SDS011;47054;39.716;2.904;2022-12-11T02:05:13;7.38;;;4.40;;
61188;SDS011;47054;39.716;2.904;2022-12-11T02:07:58;7.75;;;4.50;;
61188;SDS011;47054;39.716;2.904;2022-12-11T02:13:38;6.25;;;3.88;;
61188;SDS011;47054;39.716;2.904;2022-12-11T02:17:28;7.72;;;4.22;;
61188;SDS011;47054;39.716;2.904;2022-12-11T02:20:23;9.85;;;4.45;;
61188;SDS011;47054;39.716;2.904;2022-12-11T02:26:03;7.22;;;3.90;;
61188;SDS011;47054;39.716;2.904;2022-12-11T02:29:00;6.38;;;3.97;;
61188;SDS011;47054;39.716;2.904;2022-12-11T02:31:49;8.30;;;4.40;;
61188;SDS011;47054;39.716;2.904;2022-12-11T02:34:43;7.20;;;3.97;;
61188;SDS011;47054;39.716;2.904;2022-12-11T02:37:35;7.75;;;3.90;;
61188;SDS011;47054;39.716;2.904;2022-12-11T02:40:23;5.63;;;3.60;;
61188;SDS011;47054;39.716;2.904;2022-12-11T02:43:12;7.38;;;4.10;;
61188;SDS011;47054;39.716;2.904;2022-12-11T02:45:59;6.60;;;3.88;;
61188;SDS011;47054;39.716;2.904;2022-12-11T02:48:47;8.15;;;3.88;;
61188;SDS011;47054;39.716;2.904;2022-12-11T02:51:35;6.78;;;3.47;;
61188;SDS011;47054;39.716;2.904;2022-12-11T02:54:27;7.05;;;3.97;;
61188;SDS011;47054;39.716;2.904;2022-12-11T02:57:21;8.10;;;4.03;;
61188;SDS011;47054;39.716;2.904;2022-12-11T03:00:11;6.60;;;3.78;;
61188;SDS011;47054;39.716;2.904;2022-12-11T03:02:56;6.28;;;3.63;;
61188;SDS011;47054;39.716;2.904;2022-12-11T03:05:41;5.75;;;3.50;;
61188;SDS011;47054;39.716;2.904;2022-12-11T03:08:26;7.18;;;4.07;;
61188;SDS011;47054;39.716;2.904;2022-12-11T03:11:10;5.93;;;3.55;;
61188;SDS011;47054;39.716;2.904;2022-12-11T03:13:55;7.35;;;3.50;;
61188;SDS011;47054;39.716;2.904;2022-12-11T03:16:41;7.35;;;4.18;;
61188;SDS011;47054;39.716;2.904;2022-12-11T03:25:56;9.63;;;4.90;;
61188;SDS011;47054;39.716;2.904;2022-12-11T03:29:26;11.15;;;5.72;;
61188;SDS011;47054;39.716;2.904;2022-12-11T03:34:59;9.48;;;5.57;;
61188;SDS011;47054;39.716;2.904;2022-12-11T03:37:50;12.68;;;6.95;;
61188;SDS011;47054;39.716;2.904;2022-12-11T03:40:36;12.18;;;6.22;;
61188;SDS011;47054;39.716;2.904;2022-12-11T03:43:23;12.57;;;7.00;;
61188;SDS011;47054;39.716;2.904;2022-12-11T03:46:09;12.88;;;6.60;;
61188;SDS011;47054;39.716;2.904;2022-12-11T03:49:02;13.43;;;7.18;;
61188;SDS011;47054;39.716;2.904;2022-12-11T03:51:51;14.55;;;6.80;;
61188;SDS011;47054;39.716;2.904;2022-12-11T03:54:39;12.60;;;7.00;;
61188;SDS011;47054;39.716;2.904;2022-12-11T03:57:27;12.75;;;7.32;;
61188;SDS011;47054;39.716;2.904;2022-12-11T04:00:15;13.52;;;7.43;;
61188;SDS011;47054;39.716;2.904;2022-12-11T04:03:01;13.15;;;6.43;;
61188;SDS011;47054;39.716;2.904;2022-12-11T04:05:58;14.45;;;7.70;;
61188;SDS011;47054;39.716;2.904;2022-12-11T04:08:43;12.73;;;7.13;;
61188;SDS011;47054;39.716;2.904;2022-12-11T04:11:27;12.35;;;6.90;;
61188;SDS011;47054;39.716;2.904;2022-12-11T04:14:17;11.55;;;6.60;;
61188;SDS011;47054;39.716;2.904;2022-12-11T04:17:20;12.30;;;6.90;;
61188;SDS011;47054;39.716;2.904;2022-12-11T04:20:23;15.98;;;8.25;;
61188;SDS011;47054;39.716;2.904;2022-12-11T04:23:26;18.40;;;9.07;;
61188;SDS011;47054;39.716;2.904;2022-12-11T04:26:29;15.18;;;8.45;;
61188;SDS011;47054;39.716;2.904;2022-12-11T04:29:14;17.05;;;9.23;;
61188;SDS011;47054;39.716;2.904;2022-12-11T04:31:58;20.45;;;9.82;;
61188;SDS011;47054;39.716;2.904;2022-12-11T04:34:43;17.27;;;8.70;;
61188;SDS011;47054;39.716;2.904;2022-12-11T04:37:27;17.13;;;8.90;;
61188;SDS011;47054;39.716;2.904;2022-12-11T04:40:13;15.75;;;8.85;;
61188;SDS011;47054;39.716;2.904;2022-12-11T04:42:59;19.48;;;9.40;;
61188;SDS011;47054;39.716;2.904;2022-12-11T04:45:43;18.00;;;9.10;;
61188;SDS011;47054;39.716;2.904;2022-12-11T04:48:28;18.20;;;9.32;;
61188;SDS011;47054;39.716;2.904;2022-12-11T04:51:13;20.38;;;10.85;;
61188;SDS011;47054;39.716;2.904;2022-12-11T04:53:57;19.13;;;9.95;;
61188;SDS011;47054;39.716;2.904;2022-12-11T04:56:42;17.50;;;9.57;;
61188;SDS011;47054;39.716;2.904;2022-12-11T04:59:27;19.25;;;9.45;;
61188;SDS011;47054;39.716;2.904;2022-12-11T05:02:11;20.42;;;10.43;;
61188;SDS011;47054;39.716;2.904;2022-12-11T05:04:56;17.05;;;9.57;;
61188;SDS011;47054;39.716;2.904;2022-12-11T05:07:40;18.30;;;9.52;;
61188;SDS011;47054;39.716;2.904;2022-12-11T05:10:25;19.05;;;9.75;;
61188;SDS011;47054;39.716;2.904;2022-12-11T05:13:10;17.65;;;8.77;;
61188;SDS011;47054;39.716;2.904;2022-12-11T05:15:54;17.45;;;9.32;;
61188;SDS011;47054;39.716;2.904;2022-12-11T05:18:40;15.73;;;8.85;;
61188;SDS011;47054;39.716;2.904;2022-12-11T05:21:25;18.95;;;9.63;;
61188;SDS011;47054;39.716;2.904;2022-12-11T05:24:09;15.27;;;8.45;;
61188;SDS011;47054;39.716;2.904;2022-12-11T05:26:54;15.38;;;8.30;;
61188;SDS011;47054;39.716;2.904;2022-12-11T05:29:39;16.67;;;8.80;;
61188;SDS011;47054;39.716;2.904;2022-12-11T05:32:23;16.75;;;8.68;;
61188;SDS011;47054;39.716;2.904;2022-12-11T05:35:08;16.63;;;8.10;;
61188;SDS011;47054;39.716;2.904;2022-12-11T05:37:53;16.50;;;8.48;;
61188;SDS011;47054;39.716;2.904;2022-12-11T05:40:37;16.70;;;8.25;;
61188;SDS011;47054;39.716;2.904;2022-12-11T05:43:22;13.57;;;8.02;;
61188;SDS011;47054;39.716;2.904;2022-12-11T05:46:07;17.88;;;8.77;;
61188;SDS011;47054;39.716;2.904;2022-12-11T05:48:56;15.80;;;8.10;;
61188;SDS011;47054;39.716;2.904;2022-12-11T05:51:42;14.38;;;7.75;;
61188;SDS011;47054;39.716;2.904;2022-12-11T05:54:27;12.63;;;7.45;;
61188;SDS011;47054;39.716;2.904;2022-12-11T05:57:11;14.98;;;8.00;;
61188;SDS011;47054;39.716;2.904;2022-12-11T05:59:56;13.85;;;7.53;;
61188;SDS011;47054;39.716;2.904;2022-12-11T06:02:41;12.48;;;7.13;;
61188;SDS011;47054;39.716;2.904;2022-12-11T06:05:26;12.85;;;7.15;;
61188;SDS011;47054;39.716;2.904;2022-12-11T06:08:10;12.07;;;7.13;;
61188;SDS011;47054;39.716;2.904;2022-12-11T06:10:54;13.70;;;6.65;;
61188;SDS011;47054;39.716;2.904;2022-12-11T06:13:39;14.68;;;6.97;;
61188;SDS011;47054;39.716;2.904;2022-12-11T06:16:23;12.68;;;6.72;;
61188;SDS011;47054;39.716;2.904;2022-12-11T06:19:12;11.95;;;6.50;;
61188;SDS011;47054;39.716;2.904;2022-12-11T06:21:57;12.63;;;6.97;;
61188;SDS011;47054;39.716;2.904;2022-12-11T06:24:42;12.05;;;6.53;;
61188;SDS011;47054;39.716;2.904;2022-12-11T06:27:26;12.38;;;6.65;;
61188;SDS011;47054;39.716;2.904;2022-12-11T06:30:11;11.43;;;6.57;;
61188;SDS011;47054;39.716;2.904;2022-12-11T06:32:59;12.73;;;6.20;;
61188;SDS011;47054;39.716;2.904;2022-12-11T06:35:44;11.73;;;6.15;;
61188;SDS011;47054;39.716;2.904;2022-12-11T06:38:28;11.30;;;6.22;;
61188;SDS011;47054;39.716;2.904;2022-12-11T06:41:13;10.43;;;6.00;;
61188;SDS011;47054;39.716;2.904;2022-12-11T06:43:58;11.55;;;6.30;;
61188;SDS011;47054;39.716;2.904;2022-12-11T06:46:42;10.05;;;5.80;;
61188;SDS011;47054;39.716;2.904;2022-12-11T06:49:27;10.90;;;5.80;;
61188;SDS011;47054;39.716;2.904;2022-12-11T06:52:11;11.13;;;6.10;;
61188;SDS011;47054;39.716;2.904;2022-12-11T06:54:56;10.57;;;5.72;;
61188;SDS011;47054;39.716;2.904;2022-12-11T06:57:40;11.10;;;5.55;;
61188;SDS011;47054;39.716;2.904;2022-12-11T07:00:25;10.60;;;5.75;;
61188;SDS011;47054;39.716;2.904;2022-12-11T07:03:10;10.38;;;5.20;;
61188;SDS011;47054;39.716;2.904;2022-12-11T07:06:00;9.45;;;5.45;;
61188;SDS011;47054;39.716;2.904;2022-12-11T07:08:45;11.65;;;5.32;;
61188;SDS011;47054;39.716;2.904;2022-12-11T07:11:30;9.65;;;4.82;;
61188;SDS011;47054;39.716;2.904;2022-12-11T07:14:14;10.75;;;5.20;;
61188;SDS011;47054;39.716;2.904;2022-12-11T07:16:59;10.75;;;5.63;;
61188;SDS011;47054;39.716;2.904;2022-12-11T07:19:44;9.15;;;5.20;;
61188;SDS011;47054;39.716;2.904;2022-12-11T07:22:28;9.13;;;5.00;;
61188;SDS011;47054;39.716;2.904;2022-12-11T07:25:13;10.40;;;5.32;;
61188;SDS011;47054;39.716;2.904;2022-12-11T07:27:58;8.88;;;4.72;;
61188;SDS011;47054;39.716;2.904;2022-12-11T07:30:42;8.23;;;5.07;;
61188;SDS011;47054;39.716;2.904;2022-12-11T07:33:27;9.25;;;5.20;;
61188;SDS011;47054;39.716;2.904;2022-12-11T07:36:12;8.10;;;4.68;;
61188;SDS011;47054;39.716;2.904;2022-12-11T07:38:58;9.07;;;4.80;;
61188;SDS011;47054;39.716;2.904;2022-12-11T07:41:43;10.43;;;5.10;;
61188;SDS011;47054;39.716;2.904;2022-12-11T07:44:29;8.30;;;4.68;;
61188;SDS011;47054;39.716;2.904;2022-12-11T07:47:14;9.90;;;4.55;;
61188;SDS011;47054;39.716;2.904;2022-12-11T07:49:59;7.75;;;4.32;;
61188;SDS011;47054;39.716;2.904;2022-12-11T07:52:43;7.95;;;4.20;;
61188;SDS011;47054;39.716;2.904;2022-12-11T07:55:30;7.30;;;4.45;;
61188;SDS011;47054;39.716;2.904;2022-12-11T07:58:15;8.60;;;4.78;;
61188;SDS011;47054;39.716;2.904;2022-12-11T08:01:00;7.68;;;4.05;;
61188;SDS011;47054;39.716;2.904;2022-12-11T08:03:45;7.07;;;4.00;;
61188;SDS011;47054;39.716;2.904;2022-12-11T08:06:30;7.40;;;4.05;;
61188;SDS011;47054;39.716;2.904;2022-12-11T08:09:19;7.32;;;3.83;;
61188;SDS011;47054;39.716;2.904;2022-12-11T08:12:06;8.65;;;4.10;;
61188;SDS011;47054;39.716;2.904;2022-12-11T08:14:50;6.75;;;3.80;;
61188;SDS011;47054;39.716;2.904;2022-12-11T08:17:34;8.35;;;4.07;;
61188;SDS011;47054;39.716;2.904;2022-12-11T08:20:20;6.85;;;3.90;;
61188;SDS011;47054;39.716;2.904;2022-12-11T08:23:05;6.35;;;3.72;;
61188;SDS011;47054;39.716;2.904;2022-12-11T08:25:49;5.72;;;3.22;;
61188;SDS011;47054;39.716;2.904;2022-12-11T08:28:34;7.63;;;4.10;;
61188;SDS011;47054;39.716;2.904;2022-12-11T08:31:19;7.03;;;3.45;;
61188;SDS011;47054;39.716;2.904;2022-12-11T08:34:03;5.82;;;3.50;;
61188;SDS011;47054;39.716;2.904;2022-12-11T08:36:48;7.93;;;3.70;;
61188;SDS011;47054;39.716;2.904;2022-12-11T08:39:34;5.82;;;3.33;;
61188;SDS011;47054;39.716;2.904;2022-12-11T08:42:19;6.38;;;3.47;;
61188;SDS011;47054;39.716;2.904;2022-12-11T08:45:04;6.13;;;3.35;;
61188;SDS011;47054;39.716;2.904;2022-12-11T08:47:50;6.97;;;3.90;;
61188;SDS011;47054;39.716;2.904;2022-12-11T08:50:35;5.95;;;3.38;;
61188;SDS011;47054;39.716;2.904;2022-12-11T08:53:20;6.78;;;3.60;;
61188;SDS011;47054;39.716;2.904;2022-12-11T08:56:06;6.30;;;3.33;;
61188;SDS011;47054;39.716;2.904;2022-12-11T08:58:53;6.80;;;3.40;;
61188;SDS011;47054;39.716;2.904;2022-12-11T09:01:37;5.60;;;3.47;;
61188;SDS011;47054;39.716;2.904;2022-12-11T09:04:22;6.53;;;3.22;;
61188;SDS011;47054;39.716;2.904;2022-12-11T09:07:07;5.68;;;3.08;;
61188;SDS011;47054;39.716;2.904;2022-12-11T09:09:54;5.78;;;3.28;;
61188;SDS011;47054;39.716;2.904;2022-12-11T09:12:39;5.78;;;3.30;;
61188;SDS011;47054;39.716;2.904;2022-12-11T09:15:23;6.03;;;3.38;;
61188;SDS011;47054;39.716;2.904;2022-12-11T09:18:08;6.18;;;3.20;;
61188;SDS011;47054;39.716;2.904;2022-12-11T09:21:12;6.78;;;3.38;;
61188;SDS011;47054;39.716;2.904;2022-12-11T09:23:59;4.80;;;2.95;;
61188;SDS011;47054;39.716;2.904;2022-12-11T09:26:44;7.05;;;3.15;;
61188;SDS011;47054;39.716;2.904;2022-12-11T09:29:30;4.45;;;2.55;;
61188;SDS011;47054;39.716;2.904;2022-12-11T09:32:15;4.90;;;2.80;;
61188;SDS011;47054;39.716;2.904;2022-12-11T09:35:00;6.47;;;2.70;;
61188;SDS011;47054;39.716;2.904;2022-12-11T09:37:46;4.40;;;2.75;;
61188;SDS011;47054;39.716;2.904;2022-12-11T09:40:30;5.90;;;2.83;;
61188;SDS011;47054;39.716;2.904;2022-12-11T09:46:29;5.38;;;2.92;;
61188;SDS011;47054;39.716;2.904;2022-12-11T09:52:16;4.20;;;2.47;;
61188;SDS011;47054;39.716;2.904;2022-12-11T09:55:08;5.38;;;2.97;;
61188;SDS011;47054;39.716;2.904;2022-12-11T09:58:46;5.22;;;2.75;;
61188;SDS011;47054;39.716;2.904;2022-12-11T10:10:28;6.35;;;3.90;;
61188;SDS011;47054;39.716;2.904;2022-12-11T10:19:29;6.10;;;3.33;;
61188;SDS011;47054;39.716;2.904;2022-12-11T10:22:26;7.43;;;3.50;;
61188;SDS011;47054;39.716;2.904;2022-12-11T10:25:24;7.90;;;3.90;;
61188;SDS011;47054;39.716;2.904;2022-12-11T10:28:16;5.43;;;3.03;;
61188;SDS011;47054;39.716;2.904;2022-12-11T10:36:45;8.40;;;3.90;;
61188;SDS011;47054;39.716;2.904;2022-12-11T10:39:30;7.20;;;3.53;;
61188;SDS011;47054;39.716;2.904;2022-12-11T10:42:16;7.88;;;3.47;;
61188;SDS011;47054;39.716;2.904;2022-12-11T10:45:03;6.63;;;3.42;;
61188;SDS011;47054;39.716;2.904;2022-12-11T10:47:48;6.25;;;3.45;;
61188;SDS011;47054;39.716;2.904;2022-12-11T10:50:34;6.20;;;3.45;;
61188;SDS011;47054;39.716;2.904;2022-12-11T10:53:19;7.82;;;3.75;;
61188;SDS011;47054;39.716;2.904;2022-12-11T10:56:04;6.20;;;3.33;;
61188;SDS011;47054;39.716;2.904;2022-12-11T10:58:49;5.70;;;3.60;;
61188;SDS011;47054;39.716;2.904;2022-12-11T11:01:35;7.20;;;3.30;;
61188;SDS011;47054;39.716;2.904;2022-12-11T11:04:21;7.00;;;3.20;;
61188;SDS011;47054;39.716;2.904;2022-12-11T11:07:13;7.17;;;3.30;;
61188;SDS011;47054;39.716;2.904;2022-12-11T11:10:04;10.15;;;3.70;;
61188;SDS011;47054;39.716;2.904;2022-12-11T11:12:54;8.40;;;3.17;;
61188;SDS011;47054;39.716;2.904;2022-12-11T11:15:43;5.68;;;3.30;;
61188;SDS011;47054;39.716;2.904;2022-12-11T11:18:28;9.68;;;2.92;;
61188;SDS011;47054;39.716;2.904;2022-12-11T11:21:15;8.90;;;3.20;;
61188;SDS011;47054;39.716;2.904;2022-12-11T11:24:01;6.32;;;3.55;;
61188;SDS011;47054;39.716;2.904;2022-12-11T11:27:41;7.63;;;2.90;;
61188;SDS011;47054;39.716;2.904;2022-12-11T11:30:33;8.00;;;3.10;;
61188;SDS011;47054;39.716;2.904;2022-12-11T11:33:20;5.68;;;2.80;;
61188;SDS011;47054;39.716;2.904;2022-12-11T11:36:16;11.07;;;3.25;;
61188;SDS011;47054;39.716;2.904;2022-12-11T11:42:22;9.52;;;2.92;;
61188;SDS011;47054;39.716;2.904;2022-12-11T11:45:16;8.15;;;3.10;;
61188;SDS011;47054;39.716;2.904;2022-12-11T11:51:20;17.02;;;3.17;;
61188;SDS011;47054;39.716;2.904;2022-12-11T11:57:27;9.32;;;3.00;;
61188;SDS011;47054;39.716;2.904;2022-12-11T12:00:22;9.13;;;2.90;;
61188;SDS011;47054;39.716;2.904;2022-12-11T12:03:09;6.43;;;2.67;;
61188;SDS011;47054;39.716;2.904;2022-12-11T12:05:57;5.43;;;2.80;;
61188;SDS011;47054;39.716;2.904;2022-12-11T12:12:07;6.47;;;2.60;;
61188;SDS011;47054;39.716;2.904;2022-12-11T12:15:18;5.35;;;2.38;;
61188;SDS011;47054;39.716;2.904;2022-12-11T12:21:34;5.22;;;2.80;;
61188;SDS011;47054;39.716;2.904;2022-12-11T12:24:28;7.57;;;2.42;;
61188;SDS011;47054;39.716;2.904;2022-12-11T12:30:24;7.30;;;2.72;;
61188;SDS011;47054;39.716;2.904;2022-12-11T12:33:23;6.00;;;2.60;;
61188;SDS011;47054;39.716;2.904;2022-12-11T12:42:17;6.88;;;2.78;;
61188;SDS011;47054;39.716;2.904;2022-12-11T12:47:55;4.90;;;2.33;;
61188;SDS011;47054;39.716;2.904;2022-12-11T12:50:41;6.13;;;2.70;;
61188;SDS011;47054;39.716;2.904;2022-12-11T12:53:30;8.93;;;2.83;;
61188;SDS011;47054;39.716;2.904;2022-12-11T12:56:18;5.85;;;2.80;;
61188;SDS011;47054;39.716;2.904;2022-12-11T12:59:17;9.32;;;2.58;;
61188;SDS011;47054;39.716;2.904;2022-12-11T13:02:05;9.52;;;3.03;;
61188;SDS011;47054;39.716;2.904;2022-12-11T13:04:59;7.90;;;2.90;;
61188;SDS011;47054;39.716;2.904;2022-12-11T13:07:57;8.57;;;2.70;;
61188;SDS011;47054;39.716;2.904;2022-12-11T13:10:44;7.95;;;2.85;;
61188;SDS011;47054;39.716;2.904;2022-12-11T13:13:44;5.30;;;2.50;;
61188;SDS011;47054;39.716;2.904;2022-12-11T13:16:37;4.20;;;2.30;;
61188;SDS011;47054;39.716;2.904;2022-12-11T13:28:04;4.82;;;2.38;;
61188;SDS011;47054;39.716;2.904;2022-12-11T13:31:04;5.07;;;2.20;;
61188;SDS011;47054;39.716;2.904;2022-12-11T13:37:01;5.45;;;2.28;;
61188;SDS011;47054;39.716;2.904;2022-12-11T13:39:48;6.75;;;2.60;;
61188;SDS011;47054;39.716;2.904;2022-12-11T13:48:24;5.70;;;2.38;;
61188;SDS011;47054;39.716;2.904;2022-12-11T13:51:15;5.03;;;2.42;;
61188;SDS011;47054;39.716;2.904;2022-12-11T13:54:06;4.72;;;2.42;;
61188;SDS011;47054;39.716;2.904;2022-12-11T13:57:03;5.28;;;2.30;;
61188;SDS011;47054;39.716;2.904;2022-12-11T13:59:51;4.70;;;2.40;;
61188;SDS011;47054;39.716;2.904;2022-12-11T14:02:38;6.30;;;2.40;;
61188;SDS011;47054;39.716;2.904;2022-12-11T14:05:25;4.32;;;2.22;;
61188;SDS011;47054;39.716;2.904;2022-12-11T14:08:16;5.13;;;2.47;;
61188;SDS011;47054;39.716;2.904;2022-12-11T14:11:07;6.30;;;2.20;;
61188;SDS011;47054;39.716;2.904;2022-12-11T14:13:51;4.80;;;2.38;;
61188;SDS011;47054;39.716;2.904;2022-12-11T14:16:36;5.15;;;2.47;;
61188;SDS011;47054;39.716;2.904;2022-12-11T14:19:21;4.50;;;2.47;;
61188;SDS011;47054;39.716;2.904;2022-12-11T14:22:15;6.47;;;2.80;;
61188;SDS011;47054;39.716;2.904;2022-12-11T14:25:23;4.75;;;2.50;;
61188;SDS011;47054;39.716;2.904;2022-12-11T14:28:14;5.65;;;2.38;;
61188;SDS011;47054;39.716;2.904;2022-12-11T14:31:00;5.22;;;2.20;;
61188;SDS011;47054;39.716;2.904;2022-12-11T14:33:47;4.50;;;2.72;;
61188;SDS011;47054;39.716;2.904;2022-12-11T14:36:35;6.72;;;2.80;;
61188;SDS011;47054;39.716;2.904;2022-12-11T14:42:16;5.00;;;2.47;;
61188;SDS011;47054;39.716;2.904;2022-12-11T14:48:24;6.32;;;2.70;;
61188;SDS011;47054;39.716;2.904;2022-12-11T14:51:15;4.60;;;2.38;;
61188;SDS011;47054;39.716;2.904;2022-12-11T14:54:03;3.70;;;2.55;;
61188;SDS011;47054;39.716;2.904;2022-12-11T14:56:48;6.15;;;2.72;;
61188;SDS011;47054;39.716;2.904;2022-12-11T14:59:36;5.45;;;2.80;;
61188;SDS011;47054;39.716;2.904;2022-12-11T15:02:26;4.75;;;2.58;;
61188;SDS011;47054;39.716;2.904;2022-12-11T15:05:17;5.90;;;2.65;;
61188;SDS011;47054;39.716;2.904;2022-12-11T15:13:57;5.63;;;2.80;;
61188;SDS011;47054;39.716;2.904;2022-12-11T15:16:43;5.45;;;2.65;;
61188;SDS011;47054;39.716;2.904;2022-12-11T15:19:30;5.43;;;2.70;;
61188;SDS011;47054;39.716;2.904;2022-12-11T15:22:18;5.40;;;2.50;;
61188;SDS011;47054;39.716;2.904;2022-12-11T15:25:15;5.82;;;2.85;;
61188;SDS011;47054;39.716;2.904;2022-12-11T15:28:03;7.90;;;2.75;;
61188;SDS011;47054;39.716;2.904;2022-12-11T15:30:54;4.88;;;2.50;;
61188;SDS011;47054;39.716;2.904;2022-12-11T15:33:45;6.00;;;2.65;;
61188;SDS011;47054;39.716;2.904;2022-12-11T15:36:33;5.35;;;2.80;;
61188;SDS011;47054;39.716;2.904;2022-12-11T15:39:20;4.90;;;2.60;;
61188;SDS011;47054;39.716;2.904;2022-12-11T15:42:04;6.30;;;2.53;;
61188;SDS011;47054;39.716;2.904;2022-12-11T15:44:50;4.97;;;2.35;;
61188;SDS011;47054;39.716;2.904;2022-12-11T15:47:36;5.70;;;2.33;;
61188;SDS011;47054;39.716;2.904;2022-12-11T15:50:24;4.10;;;2.42;;
61188;SDS011;47054;39.716;2.904;2022-12-11T15:53:10;3.97;;;2.53;;
61188;SDS011;47054;39.716;2.904;2022-12-11T15:55:55;4.38;;;2.22;;
61188;SDS011;47054;39.716;2.904;2022-12-11T15:58:41;4.40;;;2.40;;
61188;SDS011;47054;39.716;2.904;2022-12-11T16:01:28;4.75;;;2.50;;
61188;SDS011;47054;39.716;2.904;2022-12-11T16:04:14;4.93;;;2.50;;
61188;SDS011;47054;39.716;2.904;2022-12-11T16:06:59;5.22;;;2.67;;
61188;SDS011;47054;39.716;2.904;2022-12-11T16:09:43;5.15;;;2.47;;
61188;SDS011;47054;39.716;2.904;2022-12-11T16:12:29;3.70;;;2.15;;
61188;SDS011;47054;39.716;2.904;2022-12-11T16:15:13;4.90;;;2.35;;
61188;SDS011;47054;39.716;2.904;2022-12-11T16:18:06;5.43;;;2.40;;
61188;SDS011;47054;39.716;2.904;2022-12-11T16:20:52;3.55;;;2.30;;
61188;SDS011;47054;39.716;2.904;2022-12-11T16:23:37;4.68;;;2.28;;
61188;SDS011;47054;39.716;2.904;2022-12-11T16:26:21;4.85;;;2.38;;
61188;SDS011;47054;39.716;2.904;2022-12-11T16:29:06;4.53;;;2.42;;
61188;SDS011;47054;39.716;2.904;2022-12-11T16:31:51;4.18;;;2.30;;
61188;SDS011;47054;39.716;2.904;2022-12-11T16:34:36;4.20;;;2.38;;
61188;SDS011;47054;39.716;2.904;2022-12-11T16:37:21;3.75;;;2.08;;
61188;SDS011;47054;39.716;2.904;2022-12-11T16:40:05;5.53;;;2.42;;
61188;SDS011;47054;39.716;2.904;2022-12-11T16:42:51;5.05;;;2.60;;
61188;SDS011;47054;39.716;2.904;2022-12-11T16:45:35;4.63;;;2.58;;
61188;SDS011;47054;39.716;2.904;2022-12-11T16:48:21;5.35;;;2.63;;
61188;SDS011;47054;39.716;2.904;2022-12-11T16:51:06;5.22;;;2.78;;
61188;SDS011;47054;39.716;2.904;2022-12-11T16:53:51;5.47;;;2.58;;
61188;SDS011;47054;39.716;2.904;2022-12-11T16:56:36;5.45;;;2.80;;
61188;SDS011;47054;39.716;2.904;2022-12-11T16:59:21;4.20;;;2.53;;
61188;SDS011;47054;39.716;2.904;2022-12-11T17:02:06;5.55;;;2.47;;
61188;SDS011;47054;39.716;2.904;2022-12-11T17:04:50;5.68;;;2.70;;
61188;SDS011;47054;39.716;2.904;2022-12-11T17:07:35;5.68;;;2.85;;
61188;SDS011;47054;39.716;2.904;2022-12-11T17:10:19;4.93;;;2.50;;
61188;SDS011;47054;39.716;2.904;2022-12-11T17:13:04;6.78;;;3.30;;
61188;SDS011;47054;39.716;2.904;2022-12-11T17:15:49;5.45;;;2.70;;
61188;SDS011;47054;39.716;2.904;2022-12-11T17:18:33;4.32;;;2.78;;
61188;SDS011;47054;39.716;2.904;2022-12-11T17:21:19;5.03;;;2.83;;
61188;SDS011;47054;39.716;2.904;2022-12-11T17:24:06;5.60;;;2.92;;
61188;SDS011;47054;39.716;2.904;2022-12-11T17:26:51;6.53;;;3.05;;
61188;SDS011;47054;39.716;2.904;2022-12-11T17:29:36;5.82;;;3.05;;
61188;SDS011;47054;39.716;2.904;2022-12-11T17:32:21;5.72;;;2.75;;
61188;SDS011;47054;39.716;2.904;2022-12-11T17:35:05;6.03;;;2.97;;
61188;SDS011;47054;39.716;2.904;2022-12-11T17:37:50;5.05;;;2.72;;
61188;SDS011;47054;39.716;2.904;2022-12-11T17:40:38;5.85;;;2.78;;
61188;SDS011;47054;39.716;2.904;2022-12-11T17:43:24;5.10;;;2.80;;
61188;SDS011;47054;39.716;2.904;2022-12-11T17:46:12;6.93;;;2.88;;
61188;SDS011;47054;39.716;2.904;2022-12-11T17:48:56;5.95;;;2.67;;
61188;SDS011;47054;39.716;2.904;2022-12-11T17:51:43;6.15;;;2.92;;
61188;SDS011;47054;39.716;2.904;2022-12-11T17:54:27;6.38;;;3.10;;
61188;SDS011;47054;39.716;2.904;2022-12-11T17:57:12;4.82;;;2.88;;
61188;SDS011;47054;39.716;2.904;2022-12-11T17:59:56;6.47;;;3.10;;
61188;SDS011;47054;39.716;2.904;2022-12-11T18:02:41;6.00;;;3.20;;
61188;SDS011;47054;39.716;2.904;2022-12-11T18:05:26;5.57;;;3.03;;
61188;SDS011;47054;39.716;2.904;2022-12-11T18:08:15;5.57;;;3.15;;
61188;SDS011;47054;39.716;2.904;2022-12-11T18:11:06;5.82;;;3.15;;
61188;SDS011;47054;39.716;2.904;2022-12-11T18:13:52;5.80;;;3.20;;
61188;SDS011;47054;39.716;2.904;2022-12-11T18:16:38;4.88;;;2.88;;
61188;SDS011;47054;39.716;2.904;2022-12-11T18:19:22;6.95;;;2.90;;
61188;SDS011;47054;39.716;2.904;2022-12-11T18:22:10;7.70;;;3.30;;
61188;SDS011;47054;39.716;2.904;2022-12-11T18:24:57;6.53;;;3.20;;